Terminal Aerodrome Forecast
Issued by NWS

Home | Current Version | Previous Version | Graphics & Text | Print | Product List | Glossary On
Versions: 1 2 3 4 5 6 7 8 9 10 11 12 13 14 15 16 17 18 19
000
FTUS43 KICT 280629 AAA
TAFRSL
TAF AMD
KRSL 280629Z 2806/2906 12006KT 5SM BR SCT004 BKN200
      TEMPO 2809/2813 2SM BR OVC004
     FM281600 11013KT P6SM OVC010
     FM282100 10016G24KT P6SM VCSH OVC015
     FM290300 07014G22KT 6SM SHRA VCTS OVC015CB=

USA.gov is the U.S. government's official web portal to all federal, state and local government web resources and services.